sensor_id;sensor_type;location;lat;lon;timestamp;P1;durP1;ratioP1;P2;durP2;ratioP2
75441;SDS011;64019;48.312;14.226;2024-02-26T00:02:02;3.80;;;2.83;;
75441;SDS011;64019;48.312;14.226;2024-02-26T00:04:27;5.93;;;3.40;;
75441;SDS011;64019;48.312;14.226;2024-02-26T00:06:53;4.83;;;3.10;;
75441;SDS011;64019;48.312;14.226;2024-02-26T00:09:20;6.67;;;2.43;;
75441;SDS011;64019;48.312;14.226;2024-02-26T00:11:46;5.77;;;2.83;;
75441;SDS011;64019;48.312;14.226;2024-02-26T00:14:11;11.63;;;4.93;;
75441;SDS011;64019;48.312;14.226;2024-02-26T00:16:39;12.97;;;4.30;;
75441;SDS011;64019;48.312;14.226;2024-02-26T00:19:06;8.87;;;4.10;;
75441;SDS011;64019;48.312;14.226;2024-02-26T00:21:32;10.17;;;4.50;;
75441;SDS011;64019;48.312;14.226;2024-02-26T00:23:58;9.90;;;5.17;;
75441;SDS011;64019;48.312;14.226;2024-02-26T00:26:23;11.87;;;4.13;;
75441;SDS011;64019;48.312;14.226;2024-02-26T00:28:49;9.70;;;4.03;;
75441;SDS011;64019;48.312;14.226;2024-02-26T00:31:14;21.17;;;5.70;;
75441;SDS011;64019;48.312;14.226;2024-02-26T00:33:40;13.70;;;4.40;;
75441;SDS011;64019;48.312;14.226;2024-02-26T00:36:06;10.87;;;4.40;;
75441;SDS011;64019;48.312;14.226;2024-02-26T00:38:32;9.67;;;4.43;;
75441;SDS011;64019;48.312;14.226;2024-02-26T00:40:58;12.90;;;4.70;;
75441;SDS011;64019;48.312;14.226;2024-02-26T00:43:23;14.80;;;5.33;;
75441;SDS011;64019;48.312;14.226;2024-02-26T00:45:49;13.20;;;5.73;;
75441;SDS011;64019;48.312;14.226;2024-02-26T00:48:16;10.63;;;5.43;;
75441;SDS011;64019;48.312;14.226;2024-02-26T00:50:42;14.03;;;5.10;;
75441;SDS011;64019;48.312;14.226;2024-02-26T00:53:08;15.20;;;6.10;;
75441;SDS011;64019;48.312;14.226;2024-02-26T00:55:33;11.10;;;5.03;;
75441;SDS011;64019;48.312;14.226;2024-02-26T00:57:59;10.90;;;4.67;;
75441;SDS011;64019;48.312;14.226;2024-02-26T01:00:25;13.10;;;5.23;;
75441;SDS011;64019;48.312;14.226;2024-02-26T01:02:50;13.77;;;5.50;;
75441;SDS011;64019;48.312;14.226;2024-02-26T01:05:16;10.77;;;5.23;;
75441;SDS011;64019;48.312;14.226;2024-02-26T01:07:42;9.07;;;5.53;;
75441;SDS011;64019;48.312;14.226;2024-02-26T01:10:08;14.83;;;5.57;;
75441;SDS011;64019;48.312;14.226;2024-02-26T01:12:34;14.33;;;5.47;;
75441;SDS011;64019;48.312;14.226;2024-02-26T01:15:00;13.57;;;6.07;;
75441;SDS011;64019;48.312;14.226;2024-02-26T01:17:28;13.20;;;6.50;;
75441;SDS011;64019;48.312;14.226;2024-02-26T01:19:53;12.70;;;6.07;;
75441;SDS011;64019;48.312;14.226;2024-02-26T01:22:19;18.90;;;7.10;;
75441;SDS011;64019;48.312;14.226;2024-02-26T01:24:45;13.70;;;6.37;;
75441;SDS011;64019;48.312;14.226;2024-02-26T01:27:11;10.97;;;5.67;;
75441;SDS011;64019;48.312;14.226;2024-02-26T01:29:37;15.63;;;6.27;;
75441;SDS011;64019;48.312;14.226;2024-02-26T01:32:03;12.33;;;5.93;;
75441;SDS011;64019;48.312;14.226;2024-02-26T01:34:30;12.97;;;6.10;;
75441;SDS011;64019;48.312;14.226;2024-02-26T01:36:56;13.03;;;5.87;;
75441;SDS011;64019;48.312;14.226;2024-02-26T01:39:22;13.90;;;5.87;;
75441;SDS011;64019;48.312;14.226;2024-02-26T01:41:48;8.77;;;4.80;;
75441;SDS011;64019;48.312;14.226;2024-02-26T01:44:13;10.73;;;6.10;;
75441;SDS011;64019;48.312;14.226;2024-02-26T01:46:39;11.07;;;5.57;;
75441;SDS011;64019;48.312;14.226;2024-02-26T01:49:05;8.93;;;5.10;;
75441;SDS011;64019;48.312;14.226;2024-02-26T01:51:33;13.50;;;5.57;;
75441;SDS011;64019;48.312;14.226;2024-02-26T01:54:00;11.43;;;5.33;;
75441;SDS011;64019;48.312;14.226;2024-02-26T01:56:28;9.73;;;4.93;;
75441;SDS011;64019;48.312;14.226;2024-02-26T01:58:57;9.93;;;3.97;;
75441;SDS011;64019;48.312;14.226;2024-02-26T02:01:26;11.23;;;5.23;;
75441;SDS011;64019;48.312;14.226;2024-02-26T02:03:55;7.90;;;4.80;;
75441;SDS011;64019;48.312;14.226;2024-02-26T02:06:22;7.90;;;4.57;;
75441;SDS011;64019;48.312;14.226;2024-02-26T02:08:48;12.00;;;5.07;;
75441;SDS011;64019;48.312;14.226;2024-02-26T02:11:14;8.40;;;4.60;;
75441;SDS011;64019;48.312;14.226;2024-02-26T02:13:40;13.37;;;5.27;;
75441;SDS011;64019;48.312;14.226;2024-02-26T02:16:06;13.90;;;6.33;;
75441;SDS011;64019;48.312;14.226;2024-02-26T02:18:32;12.90;;;5.20;;
75441;SDS011;64019;48.312;14.226;2024-02-26T02:21:01;12.23;;;5.23;;
75441;SDS011;64019;48.312;14.226;2024-02-26T02:23:27;8.63;;;4.80;;
75441;SDS011;64019;48.312;14.226;2024-02-26T02:25:53;14.00;;;5.50;;
75441;SDS011;64019;48.312;14.226;2024-02-26T02:28:20;9.20;;;5.30;;
75441;SDS011;64019;48.312;14.226;2024-02-26T02:30:46;10.60;;;5.00;;
75441;SDS011;64019;48.312;14.226;2024-02-26T02:33:13;10.30;;;5.00;;
75441;SDS011;64019;48.312;14.226;2024-02-26T02:35:40;11.97;;;5.20;;
75441;SDS011;64019;48.312;14.226;2024-02-26T02:38:06;15.70;;;4.80;;
75441;SDS011;64019;48.312;14.226;2024-02-26T02:40:31;8.60;;;4.00;;
75441;SDS011;64019;48.312;14.226;2024-02-26T02:42:57;11.50;;;5.00;;
75441;SDS011;64019;48.312;14.226;2024-02-26T02:45:23;9.07;;;4.43;;
75441;SDS011;64019;48.312;14.226;2024-02-26T02:47:49;9.10;;;4.43;;
75441;SDS011;64019;48.312;14.226;2024-02-26T02:50:15;8.57;;;4.30;;
75441;SDS011;64019;48.312;14.226;2024-02-26T02:52:41;7.03;;;4.27;;
75441;SDS011;64019;48.312;14.226;2024-02-26T02:55:06;7.97;;;4.47;;
75441;SDS011;64019;48.312;14.226;2024-02-26T02:57:33;9.47;;;5.30;;
75441;SDS011;64019;48.312;14.226;2024-02-26T02:59:58;7.40;;;3.97;;
75441;SDS011;64019;48.312;14.226;2024-02-26T03:02:24;7.07;;;4.37;;
75441;SDS011;64019;48.312;14.226;2024-02-26T03:04:50;7.17;;;3.97;;
75441;SDS011;64019;48.312;14.226;2024-02-26T03:07:16;8.20;;;3.73;;
75441;SDS011;64019;48.312;14.226;2024-02-26T03:09:42;11.10;;;3.93;;
75441;SDS011;64019;48.312;14.226;2024-02-26T03:12:08;16.00;;;4.10;;
75441;SDS011;64019;48.312;14.226;2024-02-26T03:14:34;6.73;;;4.30;;
75441;SDS011;64019;48.312;14.226;2024-02-26T03:17:00;8.97;;;4.53;;
75441;SDS011;64019;48.312;14.226;2024-02-26T03:19:26;9.10;;;5.03;;
75441;SDS011;64019;48.312;14.226;2024-02-26T03:21:52;11.30;;;4.50;;
75441;SDS011;64019;48.312;14.226;2024-02-26T03:24:17;8.00;;;4.53;;
75441;SDS011;64019;48.312;14.226;2024-02-26T03:26:43;7.70;;;4.73;;
75441;SDS011;64019;48.312;14.226;2024-02-26T03:29:08;11.97;;;5.13;;
75441;SDS011;64019;48.312;14.226;2024-02-26T03:31:34;10.80;;;5.67;;
75441;SDS011;64019;48.312;14.226;2024-02-26T03:34:00;10.87;;;4.53;;
75441;SDS011;64019;48.312;14.226;2024-02-26T03:36:25;9.30;;;4.40;;
75441;SDS011;64019;48.312;14.226;2024-02-26T03:38:51;5.70;;;4.20;;
75441;SDS011;64019;48.312;14.226;2024-02-26T03:41:17;8.40;;;4.70;;
75441;SDS011;64019;48.312;14.226;2024-02-26T03:43:43;9.50;;;4.10;;
75441;SDS011;64019;48.312;14.226;2024-02-26T03:46:10;12.83;;;4.80;;
75441;SDS011;64019;48.312;14.226;2024-02-26T03:48:38;7.60;;;3.93;;
75441;SDS011;64019;48.312;14.226;2024-02-26T03:51:05;13.23;;;4.80;;
75441;SDS011;64019;48.312;14.226;2024-02-26T03:53:30;9.83;;;4.00;;
75441;SDS011;64019;48.312;14.226;2024-02-26T03:55:56;10.13;;;4.43;;
75441;SDS011;64019;48.312;14.226;2024-02-26T03:58:21;9.10;;;4.90;;
75441;SDS011;64019;48.312;14.226;2024-02-26T04:00:47;8.67;;;4.90;;
75441;SDS011;64019;48.312;14.226;2024-02-26T04:03:13;7.53;;;4.53;;
75441;SDS011;64019;48.312;14.226;2024-02-26T04:05:39;8.73;;;4.83;;
75441;SDS011;64019;48.312;14.226;2024-02-26T04:08:05;9.00;;;4.23;;
75441;SDS011;64019;48.312;14.226;2024-02-26T04:10:32;6.63;;;3.93;;
75441;SDS011;64019;48.312;14.226;2024-02-26T04:13:00;10.07;;;4.30;;
75441;SDS011;64019;48.312;14.226;2024-02-26T04:15:26;8.27;;;4.67;;
75441;SDS011;64019;48.312;14.226;2024-02-26T04:17:52;11.20;;;4.73;;
75441;SDS011;64019;48.312;14.226;2024-02-26T04:20:19;11.53;;;5.93;;
75441;SDS011;64019;48.312;14.226;2024-02-26T04:22:44;9.67;;;5.43;;
75441;SDS011;64019;48.312;14.226;2024-02-26T04:25:10;10.93;;;4.70;;
75441;SDS011;64019;48.312;14.226;2024-02-26T04:27:36;8.73;;;4.20;;
75441;SDS011;64019;48.312;14.226;2024-02-26T04:30:02;7.00;;;4.03;;
75441;SDS011;64019;48.312;14.226;2024-02-26T04:32:29;7.90;;;4.67;;
75441;SDS011;64019;48.312;14.226;2024-02-26T04:34:54;9.87;;;4.97;;
75441;SDS011;64019;48.312;14.226;2024-02-26T04:37:20;8.63;;;4.20;;
75441;SDS011;64019;48.312;14.226;2024-02-26T04:39:46;7.53;;;4.47;;
75441;SDS011;64019;48.312;14.226;2024-02-26T04:42:11;8.97;;;4.83;;
75441;SDS011;64019;48.312;14.226;2024-02-26T04:44:37;8.57;;;4.47;;
75441;SDS011;64019;48.312;14.226;2024-02-26T04:47:03;7.30;;;4.47;;
75441;SDS011;64019;48.312;14.226;2024-02-26T04:49:29;7.80;;;4.33;;
75441;SDS011;64019;48.312;14.226;2024-02-26T04:51:54;8.80;;;4.70;;
75441;SDS011;64019;48.312;14.226;2024-02-26T04:54:20;8.03;;;4.70;;
75441;SDS011;64019;48.312;14.226;2024-02-26T04:56:46;9.57;;;4.70;;
75441;SDS011;64019;48.312;14.226;2024-02-26T04:59:13;6.13;;;3.63;;
75441;SDS011;64019;48.312;14.226;2024-02-26T05:01:39;6.57;;;3.73;;
75441;SDS011;64019;48.312;14.226;2024-02-26T05:04:05;6.47;;;3.93;;
75441;SDS011;64019;48.312;14.226;2024-02-26T05:06:30;11.57;;;4.10;;
75441;SDS011;64019;48.312;14.226;2024-02-26T05:08:56;13.40;;;4.23;;
75441;SDS011;64019;48.312;14.226;2024-02-26T06:15:59;6.47;;;4.07;;
75441;SDS011;64019;48.312;14.226;2024-02-26T06:18:25;13.60;;;6.33;;
75441;SDS011;64019;48.312;14.226;2024-02-26T06:37:49;10.23;;;5.00;;
75441;SDS011;64019;48.312;14.226;2024-02-26T06:40:17;9.80;;;4.37;;
75441;SDS011;64019;48.312;14.226;2024-02-26T06:52:45;6.40;;;3.47;;
75441;SDS011;64019;48.312;14.226;2024-02-26T06:57:46;8.87;;;4.30;;
75441;SDS011;64019;48.312;14.226;2024-02-26T07:00:12;8.20;;;4.60;;
75441;SDS011;64019;48.312;14.226;2024-02-26T07:02:41;16.60;;;4.50;;
75441;SDS011;64019;48.312;14.226;2024-02-26T07:05:07;5.77;;;4.07;;
75441;SDS011;64019;48.312;14.226;2024-02-26T07:07:33;7.07;;;3.90;;
75441;SDS011;64019;48.312;14.226;2024-02-26T07:09:59;9.00;;;3.63;;
75441;SDS011;64019;48.312;14.226;2024-02-26T07:12:25;10.77;;;3.83;;
75441;SDS011;64019;48.312;14.226;2024-02-26T07:14:51;9.77;;;4.47;;
75441;SDS011;64019;48.312;14.226;2024-02-26T07:17:17;6.47;;;4.13;;
75441;SDS011;64019;48.312;14.226;2024-02-26T07:19:43;7.00;;;4.27;;
75441;SDS011;64019;48.312;14.226;2024-02-26T07:22:08;6.43;;;3.70;;
75441;SDS011;64019;48.312;14.226;2024-02-26T07:24:34;8.70;;;4.77;;
75441;SDS011;64019;48.312;14.226;2024-02-26T07:27:00;9.87;;;4.00;;
75441;SDS011;64019;48.312;14.226;2024-02-26T07:29:25;6.00;;;4.43;;
75441;SDS011;64019;48.312;14.226;2024-02-26T07:31:51;7.17;;;4.30;;
75441;SDS011;64019;48.312;14.226;2024-02-26T07:34:17;8.67;;;4.80;;
75441;SDS011;64019;48.312;14.226;2024-02-26T07:36:43;6.37;;;4.00;;
75441;SDS011;64019;48.312;14.226;2024-02-26T07:39:09;6.83;;;4.33;;
75441;SDS011;64019;48.312;14.226;2024-02-26T07:41:35;7.80;;;4.70;;
75441;SDS011;64019;48.312;14.226;2024-02-26T07:44:00;8.07;;;4.73;;
75441;SDS011;64019;48.312;14.226;2024-02-26T07:46:26;8.60;;;4.20;;
75441;SDS011;64019;48.312;14.226;2024-02-26T07:48:52;8.67;;;4.67;;
75441;SDS011;64019;48.312;14.226;2024-02-26T07:51:17;9.60;;;4.93;;
75441;SDS011;64019;48.312;14.226;2024-02-26T07:53:44;9.33;;;4.67;;
75441;SDS011;64019;48.312;14.226;2024-02-26T07:56:10;16.67;;;5.00;;
75441;SDS011;64019;48.312;14.226;2024-02-26T07:58:35;6.97;;;4.30;;
75441;SDS011;64019;48.312;14.226;2024-02-26T08:01:01;8.23;;;4.47;;
75441;SDS011;64019;48.312;14.226;2024-02-26T08:03:27;7.20;;;4.33;;
75441;SDS011;64019;48.312;14.226;2024-02-26T08:05:53;8.10;;;4.67;;
75441;SDS011;64019;48.312;14.226;2024-02-26T08:08:19;7.30;;;4.67;;
75441;SDS011;64019;48.312;14.226;2024-02-26T08:10:45;7.33;;;4.40;;
75441;SDS011;64019;48.312;14.226;2024-02-26T08:13:11;11.27;;;5.00;;
75441;SDS011;64019;48.312;14.226;2024-02-26T08:15:36;6.47;;;4.07;;
75441;SDS011;64019;48.312;14.226;2024-02-26T08:18:02;10.60;;;5.37;;
75441;SDS011;64019;48.312;14.226;2024-02-26T08:20:29;11.93;;;6.30;;
75441;SDS011;64019;48.312;14.226;2024-02-26T08:22:55;9.33;;;5.47;;
75441;SDS011;64019;48.312;14.226;2024-02-26T08:25:21;13.13;;;5.47;;
75441;SDS011;64019;48.312;14.226;2024-02-26T08:27:47;12.33;;;5.53;;
75441;SDS011;64019;48.312;14.226;2024-02-26T08:30:14;13.97;;;5.47;;
75441;SDS011;64019;48.312;14.226;2024-02-26T08:32:45;7.73;;;4.83;;
75441;SDS011;64019;48.312;14.226;2024-02-26T08:35:12;9.03;;;5.10;;
75441;SDS011;64019;48.312;14.226;2024-02-26T08:37:38;8.47;;;5.17;;
75441;SDS011;64019;48.312;14.226;2024-02-26T08:40:04;14.07;;;5.40;;
75441;SDS011;64019;48.312;14.226;2024-02-26T08:42:31;11.47;;;5.00;;
75441;SDS011;64019;48.312;14.226;2024-02-26T08:44:57;7.53;;;5.30;;
75441;SDS011;64019;48.312;14.226;2024-02-26T08:47:26;7.33;;;4.83;;
75441;SDS011;64019;48.312;14.226;2024-02-26T08:49:53;7.17;;;4.57;;
75441;SDS011;64019;48.312;14.226;2024-02-26T08:52:19;8.60;;;4.73;;
75441;SDS011;64019;48.312;14.226;2024-02-26T08:54:44;6.80;;;4.50;;
75441;SDS011;64019;48.312;14.226;2024-02-26T08:57:10;8.33;;;4.73;;
75441;SDS011;64019;48.312;14.226;2024-02-26T08:59:36;12.73;;;5.73;;
75441;SDS011;64019;48.312;14.226;2024-02-26T09:02:02;9.53;;;4.80;;
75441;SDS011;64019;48.312;14.226;2024-02-26T09:04:27;11.27;;;5.50;;
75441;SDS011;64019;48.312;14.226;2024-02-26T09:06:53;9.07;;;5.20;;
75441;SDS011;64019;48.312;14.226;2024-02-26T09:09:19;8.53;;;5.27;;
75441;SDS011;64019;48.312;14.226;2024-02-26T09:11:47;10.27;;;5.30;;
75441;SDS011;64019;48.312;14.226;2024-02-26T09:14:13;8.53;;;5.23;;
75441;SDS011;64019;48.312;14.226;2024-02-26T09:16:39;10.00;;;5.60;;
75441;SDS011;64019;48.312;14.226;2024-02-26T09:19:05;7.40;;;4.17;;
75441;SDS011;64019;48.312;14.226;2024-02-26T09:21:30;9.33;;;5.10;;
75441;SDS011;64019;48.312;14.226;2024-02-26T09:23:56;9.77;;;5.50;;
75441;SDS011;64019;48.312;14.226;2024-02-26T09:26:22;9.73;;;5.67;;
75441;SDS011;64019;48.312;14.226;2024-02-26T09:28:47;8.87;;;5.87;;
75441;SDS011;64019;48.312;14.226;2024-02-26T09:31:14;8.77;;;5.17;;
75441;SDS011;64019;48.312;14.226;2024-02-26T09:33:42;9.13;;;5.60;;
75441;SDS011;64019;48.312;14.226;2024-02-26T09:36:07;10.93;;;5.60;;
75441;SDS011;64019;48.312;14.226;2024-02-26T09:38:36;8.53;;;5.80;;
75441;SDS011;64019;48.312;14.226;2024-02-26T09:41:03;8.10;;;6.20;;
75441;SDS011;64019;48.312;14.226;2024-02-26T09:43:34;11.47;;;6.00;;
75441;SDS011;64019;48.312;14.226;2024-02-26T09:46:04;10.80;;;6.07;;
75441;SDS011;64019;48.312;14.226;2024-02-26T09:48:31;14.27;;;5.97;;
75441;SDS011;64019;48.312;14.226;2024-02-26T09:50:59;9.63;;;6.20;;
75441;SDS011;64019;48.312;14.226;2024-02-26T09:53:27;9.47;;;5.30;;
75441;SDS011;64019;48.312;14.226;2024-02-26T09:55:57;11.23;;;6.23;;
75441;SDS011;64019;48.312;14.226;2024-02-26T09:58:24;9.90;;;5.17;;
75441;SDS011;64019;48.312;14.226;2024-02-26T10:00:53;11.23;;;6.57;;
75441;SDS011;64019;48.312;14.226;2024-02-26T10:03:25;11.20;;;5.40;;
75441;SDS011;64019;48.312;14.226;2024-02-26T10:06:04;10.90;;;6.20;;
75441;SDS011;64019;48.312;14.226;2024-02-26T10:08:31;9.53;;;5.63;;
75441;SDS011;64019;48.312;14.226;2024-02-26T10:10:57;13.17;;;6.90;;
75441;SDS011;64019;48.312;14.226;2024-02-26T10:13:23;11.77;;;5.80;;
75441;SDS011;64019;48.312;14.226;2024-02-26T10:15:50;10.83;;;6.40;;
75441;SDS011;64019;48.312;14.226;2024-02-26T10:18:16;10.80;;;6.20;;
75441;SDS011;64019;48.312;14.226;2024-02-26T10:20:42;11.03;;;6.07;;
75441;SDS011;64019;48.312;14.226;2024-02-26T10:23:07;11.50;;;6.13;;
75441;SDS011;64019;48.312;14.226;2024-02-26T10:25:33;8.93;;;6.03;;
75441;SDS011;64019;48.312;14.226;2024-02-26T10:27:59;10.00;;;5.73;;
75441;SDS011;64019;48.312;14.226;2024-02-26T10:30:28;11.13;;;5.57;;
75441;SDS011;64019;48.312;14.226;2024-02-26T10:32:53;12.97;;;6.60;;
75441;SDS011;64019;48.312;14.226;2024-02-26T10:35:20;10.63;;;6.13;;
75441;SDS011;64019;48.312;14.226;2024-02-26T10:37:46;10.13;;;6.13;;
75441;SDS011;64019;48.312;14.226;2024-02-26T10:40:13;11.50;;;6.40;;
75441;SDS011;64019;48.312;14.226;2024-02-26T10:42:40;11.63;;;6.20;;
75441;SDS011;64019;48.312;14.226;2024-02-26T10:45:07;12.90;;;6.13;;
75441;SDS011;64019;48.312;14.226;2024-02-26T10:47:35;14.17;;;7.60;;
75441;SDS011;64019;48.312;14.226;2024-02-26T10:50:13;16.07;;;8.60;;
75441;SDS011;64019;48.312;14.226;2024-02-26T10:52:43;16.97;;;6.50;;
75441;SDS011;64019;48.312;14.226;2024-02-26T10:55:10;14.30;;;6.57;;
75441;SDS011;64019;48.312;14.226;2024-02-26T10:57:45;12.23;;;6.77;;
75441;SDS011;64019;48.312;14.226;2024-02-26T11:00:14;14.10;;;7.43;;
75441;SDS011;64019;48.312;14.226;2024-02-26T11:02:41;21.13;;;7.93;;
75441;SDS011;64019;48.312;14.226;2024-02-26T11:05:09;14.37;;;8.40;;
75441;SDS011;64019;48.312;14.226;2024-02-26T11:07:37;11.97;;;7.27;;
75441;SDS011;64019;48.312;14.226;2024-02-26T11:10:04;17.13;;;7.83;;
75441;SDS011;64019;48.312;14.226;2024-02-26T11:12:50;18.93;;;7.97;;
75441;SDS011;64019;48.312;14.226;2024-02-26T11:15:17;17.13;;;9.00;;
75441;SDS011;64019;48.312;14.226;2024-02-26T11:17:44;19.07;;;9.47;;
75441;SDS011;64019;48.312;14.226;2024-02-26T11:20:12;31.73;;;9.73;;
75441;SDS011;64019;48.312;14.226;2024-02-26T11:22:39;24.60;;;11.00;;
75441;SDS011;64019;48.312;14.226;2024-02-26T11:25:05;21.77;;;9.70;;
75441;SDS011;64019;48.312;14.226;2024-02-26T11:27:34;19.43;;;10.07;;
75441;SDS011;64019;48.312;14.226;2024-02-26T11:30:08;19.80;;;9.53;;
75441;SDS011;64019;48.312;14.226;2024-02-26T11:32:37;22.00;;;8.47;;
75441;SDS011;64019;48.312;14.226;2024-02-26T11:35:06;18.90;;;8.27;;
75441;SDS011;64019;48.312;14.226;2024-02-26T11:37:33;15.27;;;7.77;;
75441;SDS011;64019;48.312;14.226;2024-02-26T11:39:59;13.57;;;7.73;;
75441;SDS011;64019;48.312;14.226;2024-02-26T11:42:28;17.07;;;7.87;;
75441;SDS011;64019;48.312;14.226;2024-02-26T11:44:55;13.33;;;6.50;;
75441;SDS011;64019;48.312;14.226;2024-02-26T11:47:26;12.90;;;7.07;;
75441;SDS011;64019;48.312;14.226;2024-02-26T11:49:52;15.00;;;7.63;;
75441;SDS011;64019;48.312;14.226;2024-02-26T11:52:18;13.97;;;7.50;;
75441;SDS011;64019;48.312;14.226;2024-02-26T11:54:53;13.33;;;7.13;;
75441;SDS011;64019;48.312;14.226;2024-02-26T12:05:12;12.87;;;6.80;;
75441;SDS011;64019;48.312;14.226;2024-02-26T12:08:04;11.33;;;6.17;;
75441;SDS011;64019;48.312;14.226;2024-02-26T12:10:38;24.93;;;7.27;;
75441;SDS011;64019;48.312;14.226;2024-02-26T12:13:11;18.60;;;8.03;;
75441;SDS011;64019;48.312;14.226;2024-02-26T12:15:39;16.23;;;8.40;;
75441;SDS011;64019;48.312;14.226;2024-02-26T12:18:07;16.83;;;8.57;;
75441;SDS011;64019;48.312;14.226;2024-02-26T12:20:34;14.60;;;7.27;;
75441;SDS011;64019;48.312;14.226;2024-02-26T12:23:04;10.23;;;6.57;;
75441;SDS011;64019;48.312;14.226;2024-02-26T12:25:30;14.00;;;7.60;;
75441;SDS011;64019;48.312;14.226;2024-02-26T12:27:58;14.27;;;7.73;;
75441;SDS011;64019;48.312;14.226;2024-02-26T12:30:24;18.37;;;7.57;;
75441;SDS011;64019;48.312;14.226;2024-02-26T12:32:51;17.50;;;8.40;;
75441;SDS011;64019;48.312;14.226;2024-02-26T12:35:22;15.60;;;7.70;;
75441;SDS011;64019;48.312;14.226;2024-02-26T12:37:49;14.30;;;7.30;;
75441;SDS011;64019;48.312;14.226;2024-02-26T12:40:16;15.43;;;7.43;;
75441;SDS011;64019;48.312;14.226;2024-02-26T12:42:43;20.87;;;8.13;;
75441;SDS011;64019;48.312;14.226;2024-02-26T12:45:09;18.37;;;8.67;;
75441;SDS011;64019;48.312;14.226;2024-02-26T12:47:37;15.40;;;8.07;;
75441;SDS011;64019;48.312;14.226;2024-02-26T12:50:10;17.40;;;7.27;;
75441;SDS011;64019;48.312;14.226;2024-02-26T12:52:43;14.20;;;7.57;;
75441;SDS011;64019;48.312;14.226;2024-02-26T12:55:11;15.50;;;7.37;;
75441;SDS011;64019;48.312;14.226;2024-02-26T12:57:40;20.50;;;9.23;;
75441;SDS011;64019;48.312;14.226;2024-02-26T13:00:12;16.57;;;7.83;;
75441;SDS011;64019;48.312;14.226;2024-02-26T13:02:39;16.87;;;7.90;;
75441;SDS011;64019;48.312;14.226;2024-02-26T13:05:08;17.90;;;8.30;;
75441;SDS011;64019;48.312;14.226;2024-02-26T13:07:34;16.53;;;7.77;;
75441;SDS011;64019;48.312;14.226;2024-02-26T13:10:05;19.83;;;8.30;;
75441;SDS011;64019;48.312;14.226;2024-02-26T13:12:32;18.87;;;9.03;;
75441;SDS011;64019;48.312;14.226;2024-02-26T13:15:01;16.17;;;7.10;;
75441;SDS011;64019;48.312;14.226;2024-02-26T13:17:31;23.93;;;8.43;;
75441;SDS011;64019;48.312;14.226;2024-02-26T13:19:57;16.50;;;7.83;;
75441;SDS011;64019;48.312;14.226;2024-02-26T13:22:23;18.93;;;8.53;;
75441;SDS011;64019;48.312;14.226;2024-02-26T13:24:59;14.53;;;7.37;;
75441;SDS011;64019;48.312;14.226;2024-02-26T13:27:25;18.33;;;8.13;;
75441;SDS011;64019;48.312;14.226;2024-02-26T13:30:10;19.90;;;8.77;;
75441;SDS011;64019;48.312;14.226;2024-02-26T13:32:37;18.10;;;8.40;;
75441;SDS011;64019;48.312;14.226;2024-02-26T13:35:08;14.80;;;8.47;;
75441;SDS011;64019;48.312;14.226;2024-02-26T13:37:38;18.80;;;8.40;;
75441;SDS011;64019;48.312;14.226;2024-02-26T13:40:08;18.40;;;9.83;;
75441;SDS011;64019;48.312;14.226;2024-02-26T13:42:35;15.00;;;7.40;;
75441;SDS011;64019;48.312;14.226;2024-02-26T13:45:01;20.47;;;7.93;;
75441;SDS011;64019;48.312;14.226;2024-02-26T13:47:28;20.53;;;8.20;;
75441;SDS011;64019;48.312;14.226;2024-02-26T13:49:53;21.93;;;8.57;;
75441;SDS011;64019;48.312;14.226;2024-02-26T13:52:19;17.70;;;7.93;;
75441;SDS011;64019;48.312;14.226;2024-02-26T13:54:45;16.10;;;8.13;;
75441;SDS011;64019;48.312;14.226;2024-02-26T13:57:11;20.40;;;8.23;;
75441;SDS011;64019;48.312;14.226;2024-02-26T13:59:37;17.90;;;7.50;;
75441;SDS011;64019;48.312;14.226;2024-02-26T14:02:07;16.10;;;7.23;;
75441;SDS011;64019;48.312;14.226;2024-02-26T14:04:36;14.57;;;7.10;;
75441;SDS011;64019;48.312;14.226;2024-02-26T14:07:02;16.30;;;6.57;;
75441;SDS011;64019;48.312;14.226;2024-02-26T14:09:28;11.57;;;5.87;;
75441;SDS011;64019;48.312;14.226;2024-02-26T14:11:54;12.93;;;5.50;;
75441;SDS011;64019;48.312;14.226;2024-02-26T14:14:20;10.83;;;5.50;;
75441;SDS011;64019;48.312;14.226;2024-02-26T14:16:46;14.10;;;5.63;;
75441;SDS011;64019;48.312;14.226;2024-02-26T14:19:11;13.43;;;5.77;;
75441;SDS011;64019;48.312;14.226;2024-02-26T14:21:37;14.63;;;6.03;;
75441;SDS011;64019;48.312;14.226;2024-02-26T14:24:03;9.20;;;4.90;;
75441;SDS011;64019;48.312;14.226;2024-02-26T14:26:29;19.53;;;6.40;;
75441;SDS011;64019;48.312;14.226;2024-02-26T14:28:55;16.27;;;7.10;;
75441;SDS011;64019;48.312;14.226;2024-02-26T14:31:21;14.93;;;7.53;;
75441;SDS011;64019;48.312;14.226;2024-02-26T14:33:47;18.57;;;8.20;;
75441;SDS011;64019;48.312;14.226;2024-02-26T14:36:13;12.10;;;6.20;;
75441;SDS011;64019;48.312;14.226;2024-02-26T14:38:39;10.67;;;6.03;;
75441;SDS011;64019;48.312;14.226;2024-02-26T14:41:05;12.57;;;6.00;;
75441;SDS011;64019;48.312;14.226;2024-02-26T14:43:31;9.07;;;5.13;;
75441;SDS011;64019;48.312;14.226;2024-02-26T14:45:57;9.07;;;5.17;;
75441;SDS011;64019;48.312;14.226;2024-02-26T14:48:24;10.53;;;4.83;;
75441;SDS011;64019;48.312;14.226;2024-02-26T14:50:50;12.13;;;5.57;;
75441;SDS011;64019;48.312;14.226;2024-02-26T14:53:16;14.23;;;6.87;;
75441;SDS011;64019;48.312;14.226;2024-02-26T14:55:42;14.47;;;6.17;;
75441;SDS011;64019;48.312;14.226;2024-02-26T14:58:09;12.43;;;5.73;;
75441;SDS011;64019;48.312;14.226;2024-02-26T15:00:36;9.77;;;5.33;;
75441;SDS011;64019;48.312;14.226;2024-02-26T15:03:03;9.80;;;5.57;;
75441;SDS011;64019;48.312;14.226;2024-02-26T15:05:29;11.50;;;5.73;;
75441;SDS011;64019;48.312;14.226;2024-02-26T15:07:55;14.67;;;6.20;;
75441;SDS011;64019;48.312;14.226;2024-02-26T15:10:20;8.53;;;5.30;;
75441;SDS011;64019;48.312;14.226;2024-02-26T15:12:46;12.73;;;6.00;;
75441;SDS011;64019;48.312;14.226;2024-02-26T15:15:12;16.67;;;6.00;;
75441;SDS011;64019;48.312;14.226;2024-02-26T15:17:38;12.77;;;6.47;;
75441;SDS011;64019;48.312;14.226;2024-02-26T15:20:04;15.57;;;6.67;;
75441;SDS011;64019;48.312;14.226;2024-02-26T15:22:32;11.80;;;6.27;;
75441;SDS011;64019;48.312;14.226;2024-02-26T15:24:58;14.43;;;6.50;;
75441;SDS011;64019;48.312;14.226;2024-02-26T15:27:24;17.37;;;6.50;;
75441;SDS011;64019;48.312;14.226;2024-02-26T15:29:50;18.10;;;6.70;;
75441;SDS011;64019;48.312;14.226;2024-02-26T15:32:23;12.33;;;6.40;;
75441;SDS011;64019;48.312;14.226;2024-02-26T15:34:49;14.23;;;7.07;;
75441;SDS011;64019;48.312;14.226;2024-02-26T15:37:16;12.63;;;5.87;;
75441;SDS011;64019;48.312;14.226;2024-02-26T15:39:42;14.83;;;6.60;;
75441;SDS011;64019;48.312;14.226;2024-02-26T15:42:08;15.67;;;7.00;;
75441;SDS011;64019;48.312;14.226;2024-02-26T15:44:33;11.90;;;6.40;;
75441;SDS011;64019;48.312;14.226;2024-02-26T15:47:01;13.50;;;6.07;;
75441;SDS011;64019;48.312;14.226;2024-02-26T15:49:28;23.30;;;6.80;;
75441;SDS011;64019;48.312;14.226;2024-02-26T15:51:53;15.77;;;7.33;;
75441;SDS011;64019;48.312;14.226;2024-02-26T15:54:20;15.27;;;7.10;;
75441;SDS011;64019;48.312;14.226;2024-02-26T15:56:46;15.17;;;6.90;;
75441;SDS011;64019;48.312;14.226;2024-02-26T15:59:12;16.77;;;6.60;;
75441;SDS011;64019;48.312;14.226;2024-02-26T16:01:38;13.27;;;7.33;;
75441;SDS011;64019;48.312;14.226;2024-02-26T16:04:04;17.87;;;7.20;;
75441;SDS011;64019;48.312;14.226;2024-02-26T16:06:31;11.27;;;6.27;;